sensor_id;sensor_type;location;lat;lon;timestamp;P1;durP1;ratioP1;P2;durP2;ratioP2
34359;SDS011;20624;55.870;26.506;2023-05-07T00:00:57;16.05;;;7.57;;
34359;SDS011;20624;55.870;26.506;2023-05-07T00:03:25;14.95;;;6.45;;
34359;SDS011;20624;55.870;26.506;2023-05-07T00:05:54;15.90;;;6.93;;
34359;SDS011;20624;55.870;26.506;2023-05-07T00:08:22;12.65;;;6.13;;
34359;SDS011;20624;55.870;26.506;2023-05-07T00:10:49;14.95;;;5.85;;
34359;SDS011;20624;55.870;26.506;2023-05-07T00:13:17;17.00;;;8.00;;
34359;SDS011;20624;55.870;26.506;2023-05-07T00:15:45;15.10;;;7.47;;
34359;SDS011;20624;55.870;26.506;2023-05-07T00:18:13;17.08;;;7.35;;
34359;SDS011;20624;55.870;26.506;2023-05-07T00:20:40;14.20;;;7.28;;
34359;SDS011;20624;55.870;26.506;2023-05-07T00:23:08;18.45;;;7.38;;
34359;SDS011;20624;55.870;26.506;2023-05-07T00:25:36;15.65;;;7.13;;
34359;SDS011;20624;55.870;26.506;2023-05-07T00:28:04;18.05;;;7.55;;
34359;SDS011;20624;55.870;26.506;2023-05-07T00:30:32;20.98;;;8.18;;
34359;SDS011;20624;55.870;26.506;2023-05-07T00:32:59;20.05;;;7.53;;
34359;SDS011;20624;55.870;26.506;2023-05-07T00:35:28;17.02;;;6.90;;
34359;SDS011;20624;55.870;26.506;2023-05-07T00:37:57;18.10;;;6.47;;
34359;SDS011;20624;55.870;26.506;2023-05-07T00:40:25;15.40;;;5.88;;
34359;SDS011;20624;55.870;26.506;2023-05-07T00:42:53;13.63;;;4.93;;
34359;SDS011;20624;55.870;26.506;2023-05-07T00:45:27;12.68;;;5.03;;
34359;SDS011;20624;55.870;26.506;2023-05-07T00:47:56;11.43;;;4.60;;
34359;SDS011;20624;55.870;26.506;2023-05-07T00:50:25;16.33;;;5.32;;
34359;SDS011;20624;55.870;26.506;2023-05-07T00:52:53;12.70;;;4.97;;
34359;SDS011;20624;55.870;26.506;2023-05-07T00:55:22;8.63;;;3.88;;
34359;SDS011;20624;55.870;26.506;2023-05-07T00:57:50;11.15;;;4.05;;
34359;SDS011;20624;55.870;26.506;2023-05-07T01:00:18;9.55;;;4.20;;
34359;SDS011;20624;55.870;26.506;2023-05-07T01:02:46;11.43;;;4.40;;
34359;SDS011;20624;55.870;26.506;2023-05-07T01:05:15;12.73;;;4.65;;
34359;SDS011;20624;55.870;26.506;2023-05-07T01:07:43;14.07;;;4.93;;
34359;SDS011;20624;55.870;26.506;2023-05-07T01:10:12;8.98;;;3.97;;
34359;SDS011;20624;55.870;26.506;2023-05-07T01:12:39;10.88;;;4.18;;
34359;SDS011;20624;55.870;26.506;2023-05-07T01:15:08;11.60;;;4.57;;
34359;SDS011;20624;55.870;26.506;2023-05-07T01:17:37;13.07;;;4.03;;
34359;SDS011;20624;55.870;26.506;2023-05-07T01:20:05;8.98;;;3.28;;
34359;SDS011;20624;55.870;26.506;2023-05-07T01:22:40;9.55;;;3.67;;
34359;SDS011;20624;55.870;26.506;2023-05-07T01:25:08;13.48;;;4.15;;
34359;SDS011;20624;55.870;26.506;2023-05-07T01:27:38;11.23;;;3.88;;
34359;SDS011;20624;55.870;26.506;2023-05-07T01:30:06;7.32;;;3.00;;
34359;SDS011;20624;55.870;26.506;2023-05-07T01:32:40;9.38;;;3.08;;
34359;SDS011;20624;55.870;26.506;2023-05-07T01:35:11;7.50;;;2.72;;
34359;SDS011;20624;55.870;26.506;2023-05-07T01:37:40;8.13;;;3.72;;
34359;SDS011;20624;55.870;26.506;2023-05-07T01:40:11;8.75;;;3.17;;
34359;SDS011;20624;55.870;26.506;2023-05-07T01:42:39;8.43;;;3.17;;
34359;SDS011;20624;55.870;26.506;2023-05-07T01:45:08;7.85;;;3.10;;
34359;SDS011;20624;55.870;26.506;2023-05-07T01:47:36;7.35;;;3.33;;
34359;SDS011;20624;55.870;26.506;2023-05-07T01:50:05;8.68;;;3.25;;
34359;SDS011;20624;55.870;26.506;2023-05-07T01:52:36;9.60;;;4.15;;
34359;SDS011;20624;55.870;26.506;2023-05-07T01:55:04;11.23;;;4.18;;
34359;SDS011;20624;55.870;26.506;2023-05-07T01:57:32;10.93;;;4.15;;
34359;SDS011;20624;55.870;26.506;2023-05-07T02:00:00;13.95;;;4.32;;
34359;SDS011;20624;55.870;26.506;2023-05-07T02:02:32;13.25;;;4.60;;
34359;SDS011;20624;55.870;26.506;2023-05-07T02:05:00;12.02;;;4.85;;
34359;SDS011;20624;55.870;26.506;2023-05-07T02:07:28;13.98;;;5.45;;
34359;SDS011;20624;55.870;26.506;2023-05-07T02:09:55;12.52;;;5.20;;
34359;SDS011;20624;55.870;26.506;2023-05-07T02:12:23;12.95;;;4.28;;
34359;SDS011;20624;55.870;26.506;2023-05-07T02:14:54;9.55;;;4.00;;
34359;SDS011;20624;55.870;26.506;2023-05-07T02:17:22;8.75;;;4.22;;
34359;SDS011;20624;55.870;26.506;2023-05-07T02:19:52;13.73;;;4.85;;
34359;SDS011;20624;55.870;26.506;2023-05-07T02:22:19;14.32;;;4.70;;
34359;SDS011;20624;55.870;26.506;2023-05-07T02:24:47;11.85;;;4.43;;
34359;SDS011;20624;55.870;26.506;2023-05-07T02:27:15;14.38;;;5.15;;
34359;SDS011;20624;55.870;26.506;2023-05-07T02:29:45;11.15;;;4.93;;
34359;SDS011;20624;55.870;26.506;2023-05-07T02:32:13;15.38;;;5.57;;
34359;SDS011;20624;55.870;26.506;2023-05-07T02:34:41;15.00;;;5.05;;
34359;SDS011;20624;55.870;26.506;2023-05-07T02:37:09;13.02;;;5.18;;
34359;SDS011;20624;55.870;26.506;2023-05-07T02:39:38;13.90;;;5.93;;
34359;SDS011;20624;55.870;26.506;2023-05-07T02:42:06;14.13;;;6.32;;
34359;SDS011;20624;55.870;26.506;2023-05-07T02:44:34;13.50;;;5.63;;
34359;SDS011;20624;55.870;26.506;2023-05-07T02:47:01;10.85;;;5.45;;
34359;SDS011;20624;55.870;26.506;2023-05-07T02:49:29;11.05;;;5.53;;
34359;SDS011;20624;55.870;26.506;2023-05-07T02:51:57;11.40;;;4.93;;
34359;SDS011;20624;55.870;26.506;2023-05-07T02:54:25;14.20;;;5.18;;
34359;SDS011;20624;55.870;26.506;2023-05-07T02:56:53;9.13;;;4.93;;
34359;SDS011;20624;55.870;26.506;2023-05-07T02:59:24;16.48;;;5.47;;
34359;SDS011;20624;55.870;26.506;2023-05-07T03:01:52;10.90;;;5.07;;
34359;SDS011;20624;55.870;26.506;2023-05-07T03:04:20;12.77;;;5.38;;
34359;SDS011;20624;55.870;26.506;2023-05-07T03:06:48;12.65;;;4.53;;
34359;SDS011;20624;55.870;26.506;2023-05-07T03:09:15;13.52;;;4.97;;
34359;SDS011;20624;55.870;26.506;2023-05-07T03:11:43;12.70;;;4.57;;
34359;SDS011;20624;55.870;26.506;2023-05-07T03:14:11;11.45;;;4.13;;
34359;SDS011;20624;55.870;26.506;2023-05-07T03:16:39;8.13;;;3.55;;
34359;SDS011;20624;55.870;26.506;2023-05-07T03:19:07;7.53;;;3.33;;
34359;SDS011;20624;55.870;26.506;2023-05-07T03:21:34;7.28;;;3.60;;
34359;SDS011;20624;55.870;26.506;2023-05-07T03:24:02;12.18;;;3.90;;
34359;SDS011;20624;55.870;26.506;2023-05-07T03:26:30;7.57;;;3.40;;
34359;SDS011;20624;55.870;26.506;2023-05-07T03:28:57;8.93;;;3.42;;
34359;SDS011;20624;55.870;26.506;2023-05-07T03:31:25;9.30;;;3.60;;
34359;SDS011;20624;55.870;26.506;2023-05-07T03:33:54;8.75;;;3.30;;
34359;SDS011;20624;55.870;26.506;2023-05-07T03:36:22;11.88;;;3.88;;
34359;SDS011;20624;55.870;26.506;2023-05-07T03:38:51;7.53;;;3.22;;
34359;SDS011;20624;55.870;26.506;2023-05-07T03:41:22;10.02;;;4.07;;
34359;SDS011;20624;55.870;26.506;2023-05-07T03:43:50;9.85;;;3.75;;
34359;SDS011;20624;55.870;26.506;2023-05-07T03:46:20;12.43;;;3.85;;
34359;SDS011;20624;55.870;26.506;2023-05-07T03:48:48;8.30;;;3.88;;
34359;SDS011;20624;55.870;26.506;2023-05-07T03:51:16;9.32;;;4.00;;
34359;SDS011;20624;55.870;26.506;2023-05-07T03:53:44;11.65;;;4.75;;
34359;SDS011;20624;55.870;26.506;2023-05-07T03:56:12;9.93;;;4.85;;
34359;SDS011;20624;55.870;26.506;2023-05-07T03:58:39;12.43;;;5.20;;
34359;SDS011;20624;55.870;26.506;2023-05-07T04:01:07;13.73;;;5.20;;
34359;SDS011;20624;55.870;26.506;2023-05-07T04:03:35;19.05;;;9.27;;
34359;SDS011;20624;55.870;26.506;2023-05-07T04:06:03;18.02;;;8.75;;
34359;SDS011;20624;55.870;26.506;2023-05-07T04:08:31;19.95;;;10.07;;
34359;SDS011;20624;55.870;26.506;2023-05-07T04:10:58;24.48;;;10.95;;
34359;SDS011;20624;55.870;26.506;2023-05-07T04:13:26;15.05;;;7.35;;
34359;SDS011;20624;55.870;26.506;2023-05-07T04:15:55;19.65;;;7.95;;
34359;SDS011;20624;55.870;26.506;2023-05-07T04:18:22;19.60;;;7.68;;
34359;SDS011;20624;55.870;26.506;2023-05-07T04:20:50;18.33;;;8.35;;
34359;SDS011;20624;55.870;26.506;2023-05-07T04:23:18;16.92;;;9.10;;
34359;SDS011;20624;55.870;26.506;2023-05-07T04:25:46;18.35;;;7.35;;
34359;SDS011;20624;55.870;26.506;2023-05-07T04:28:14;18.00;;;7.90;;
34359;SDS011;20624;55.870;26.506;2023-05-07T04:30:42;22.02;;;8.40;;
34359;SDS011;20624;55.870;26.506;2023-05-07T04:33:09;16.63;;;8.25;;
34359;SDS011;20624;55.870;26.506;2023-05-07T04:35:38;18.52;;;7.00;;
34359;SDS011;20624;55.870;26.506;2023-05-07T04:38:05;19.70;;;7.50;;
34359;SDS011;20624;55.870;26.506;2023-05-07T04:40:35;13.88;;;6.47;;
34359;SDS011;20624;55.870;26.506;2023-05-07T04:43:03;15.57;;;6.32;;
34359;SDS011;20624;55.870;26.506;2023-05-07T04:45:33;15.15;;;5.47;;
34359;SDS011;20624;55.870;26.506;2023-05-07T04:48:01;11.93;;;5.40;;
34359;SDS011;20624;55.870;26.506;2023-05-07T04:50:29;14.85;;;6.50;;
34359;SDS011;20624;55.870;26.506;2023-05-07T04:52:57;15.63;;;7.20;;
34359;SDS011;20624;55.870;26.506;2023-05-07T04:55:25;15.52;;;6.80;;
34359;SDS011;20624;55.870;26.506;2023-05-07T04:57:53;13.10;;;5.40;;
34359;SDS011;20624;55.870;26.506;2023-05-07T05:00:20;9.68;;;5.20;;
34359;SDS011;20624;55.870;26.506;2023-05-07T05:02:49;9.57;;;3.15;;
34359;SDS011;20624;55.870;26.506;2023-05-07T05:05:17;6.10;;;2.78;;
34359;SDS011;20624;55.870;26.506;2023-05-07T05:07:45;5.60;;;1.98;;
34359;SDS011;20624;55.870;26.506;2023-05-07T05:10:13;6.55;;;1.77;;
34359;SDS011;20624;55.870;26.506;2023-05-07T05:12:43;10.27;;;2.53;;
34359;SDS011;20624;55.870;26.506;2023-05-07T05:15:12;8.18;;;2.00;;
34359;SDS011;20624;55.870;26.506;2023-05-07T05:17:42;5.63;;;1.77;;
34359;SDS011;20624;55.870;26.506;2023-05-07T05:20:10;6.10;;;2.08;;
34359;SDS011;20624;55.870;26.506;2023-05-07T05:22:38;4.07;;;1.95;;
34359;SDS011;20624;55.870;26.506;2023-05-07T05:25:06;5.78;;;2.20;;
34359;SDS011;20624;55.870;26.506;2023-05-07T05:27:34;5.47;;;2.13;;
34359;SDS011;20624;55.870;26.506;2023-05-07T05:30:03;8.80;;;2.08;;
34359;SDS011;20624;55.870;26.506;2023-05-07T05:32:30;7.07;;;2.25;;
34359;SDS011;20624;55.870;26.506;2023-05-07T05:35:00;3.75;;;2.03;;
34359;SDS011;20624;55.870;26.506;2023-05-07T05:37:28;5.95;;;2.00;;
34359;SDS011;20624;55.870;26.506;2023-05-07T05:39:56;6.32;;;2.38;;
34359;SDS011;20624;55.870;26.506;2023-05-07T05:42:24;7.43;;;2.25;;
34359;SDS011;20624;55.870;26.506;2023-05-07T05:44:55;6.82;;;1.75;;
34359;SDS011;20624;55.870;26.506;2023-05-07T05:47:22;6.22;;;1.85;;
34359;SDS011;20624;55.870;26.506;2023-05-07T05:49:50;7.45;;;2.33;;
34359;SDS011;20624;55.870;26.506;2023-05-07T05:52:18;5.22;;;1.88;;
34359;SDS011;20624;55.870;26.506;2023-05-07T05:54:46;7.90;;;2.72;;
34359;SDS011;20624;55.870;26.506;2023-05-07T05:57:13;6.35;;;2.15;;
34359;SDS011;20624;55.870;26.506;2023-05-07T05:59:41;7.47;;;2.63;;
34359;SDS011;20624;55.870;26.506;2023-05-07T06:02:09;7.88;;;2.33;;
34359;SDS011;20624;55.870;26.506;2023-05-07T06:04:37;6.68;;;2.28;;
34359;SDS011;20624;55.870;26.506;2023-05-07T06:07:05;7.45;;;2.33;;
34359;SDS011;20624;55.870;26.506;2023-05-07T06:09:33;15.38;;;3.00;;
34359;SDS011;20624;55.870;26.506;2023-05-07T06:12:01;5.07;;;2.00;;
34359;SDS011;20624;55.870;26.506;2023-05-07T06:14:31;8.85;;;2.35;;
34359;SDS011;20624;55.870;26.506;2023-05-07T06:16:59;6.03;;;1.95;;
34359;SDS011;20624;55.870;26.506;2023-05-07T06:19:27;6.68;;;2.15;;
34359;SDS011;20624;55.870;26.506;2023-05-07T06:21:54;6.93;;;2.65;;
34359;SDS011;20624;55.870;26.506;2023-05-07T06:24:27;7.20;;;2.20;;
34359;SDS011;20624;55.870;26.506;2023-05-07T06:26:55;5.90;;;1.80;;
34359;SDS011;20624;55.870;26.506;2023-05-07T06:29:24;9.38;;;2.67;;
34359;SDS011;20624;55.870;26.506;2023-05-07T06:31:53;7.53;;;2.00;;
34359;SDS011;20624;55.870;26.506;2023-05-07T06:34:21;6.60;;;1.73;;
34359;SDS011;20624;55.870;26.506;2023-05-07T06:36:48;2.35;;;0.88;;
34359;SDS011;20624;55.870;26.506;2023-05-07T06:39:17;6.53;;;1.48;;
34359;SDS011;20624;55.870;26.506;2023-05-07T06:41:44;2.58;;;0.80;;
34359;SDS011;20624;55.870;26.506;2023-05-07T06:44:12;6.28;;;1.40;;
34359;SDS011;20624;55.870;26.506;2023-05-07T06:46:40;6.90;;;1.52;;
34359;SDS011;20624;55.870;26.506;2023-05-07T06:49:08;4.85;;;1.25;;
34359;SDS011;20624;55.870;26.506;2023-05-07T06:51:36;2.65;;;1.00;;
34359;SDS011;20624;55.870;26.506;2023-05-07T06:54:04;4.82;;;1.13;;
34359;SDS011;20624;55.870;26.506;2023-05-07T06:56:32;4.45;;;1.20;;
34359;SDS011;20624;55.870;26.506;2023-05-07T06:59:01;2.42;;;0.80;;
34359;SDS011;20624;55.870;26.506;2023-05-07T07:01:29;2.17;;;0.90;;
34359;SDS011;20624;55.870;26.506;2023-05-07T07:03:57;3.10;;;0.95;;
34359;SDS011;20624;55.870;26.506;2023-05-07T07:06:24;6.45;;;1.40;;
34359;SDS011;20624;55.870;26.506;2023-05-07T07:08:53;5.68;;;1.25;;
34359;SDS011;20624;55.870;26.506;2023-05-07T07:11:21;5.18;;;1.13;;
34359;SDS011;20624;55.870;26.506;2023-05-07T07:13:48;2.70;;;1.00;;
34359;SDS011;20624;55.870;26.506;2023-05-07T07:16:17;3.60;;;1.02;;
34359;SDS011;20624;55.870;26.506;2023-05-07T07:18:44;3.05;;;0.98;;
34359;SDS011;20624;55.870;26.506;2023-05-07T07:21:12;3.30;;;1.05;;
34359;SDS011;20624;55.870;26.506;2023-05-07T07:23:40;2.50;;;0.90;;
34359;SDS011;20624;55.870;26.506;2023-05-07T07:26:08;10.32;;;2.03;;
34359;SDS011;20624;55.870;26.506;2023-05-07T07:28:41;3.17;;;0.90;;
34359;SDS011;20624;55.870;26.506;2023-05-07T07:31:10;2.80;;;1.00;;
34359;SDS011;20624;55.870;26.506;2023-05-07T07:33:38;4.45;;;1.00;;
34359;SDS011;20624;55.870;26.506;2023-05-07T07:36:06;3.17;;;1.25;;
34359;SDS011;20624;55.870;26.506;2023-05-07T07:38:34;4.75;;;1.30;;
34359;SDS011;20624;55.870;26.506;2023-05-07T07:41:02;3.38;;;1.35;;
34359;SDS011;20624;55.870;26.506;2023-05-07T07:43:30;3.70;;;1.00;;
34359;SDS011;20624;55.870;26.506;2023-05-07T07:45:58;2.78;;;0.80;;
34359;SDS011;20624;55.870;26.506;2023-05-07T07:48:26;5.20;;;0.82;;
34359;SDS011;20624;55.870;26.506;2023-05-07T07:50:54;3.00;;;0.90;;
34359;SDS011;20624;55.870;26.506;2023-05-07T07:53:21;2.03;;;0.70;;
34359;SDS011;20624;55.870;26.506;2023-05-07T07:55:49;4.20;;;1.00;;
34359;SDS011;20624;55.870;26.506;2023-05-07T08:00:48;4.72;;;1.02;;
34359;SDS011;20624;55.870;26.506;2023-05-07T08:03:16;8.40;;;1.58;;
34359;SDS011;20624;55.870;26.506;2023-05-07T08:05:44;5.68;;;1.40;;
34359;SDS011;20624;55.870;26.506;2023-05-07T08:08:11;5.18;;;0.95;;
34359;SDS011;20624;55.870;26.506;2023-05-07T08:10:39;4.40;;;0.90;;
34359;SDS011;20624;55.870;26.506;2023-05-07T08:13:07;3.35;;;0.90;;
34359;SDS011;20624;55.870;26.506;2023-05-07T08:15:35;2.75;;;0.73;;
34359;SDS011;20624;55.870;26.506;2023-05-07T08:18:05;3.00;;;0.80;;
34359;SDS011;20624;55.870;26.506;2023-05-07T08:20:33;2.92;;;1.02;;
34359;SDS011;20624;55.870;26.506;2023-05-07T08:23:05;4.00;;;0.88;;
34359;SDS011;20624;55.870;26.506;2023-05-07T08:25:34;2.63;;;0.77;;
34359;SDS011;20624;55.870;26.506;2023-05-07T08:28:01;2.60;;;0.82;;
34359;SDS011;20624;55.870;26.506;2023-05-07T08:30:29;4.57;;;0.85;;
34359;SDS011;20624;55.870;26.506;2023-05-07T08:32:57;3.55;;;0.85;;
34359;SDS011;20624;55.870;26.506;2023-05-07T08:35:25;4.90;;;1.05;;
34359;SDS011;20624;55.870;26.506;2023-05-07T08:37:54;3.88;;;0.93;;
34359;SDS011;20624;55.870;26.506;2023-05-07T08:40:24;10.23;;;1.85;;
34359;SDS011;20624;55.870;26.506;2023-05-07T08:42:52;2.70;;;0.80;;
34359;SDS011;20624;55.870;26.506;2023-05-07T08:45:20;6.47;;;1.38;;
34359;SDS011;20624;55.870;26.506;2023-05-07T08:47:51;3.92;;;0.82;;
34359;SDS011;20624;55.870;26.506;2023-05-07T08:50:20;2.60;;;0.55;;
34359;SDS011;20624;55.870;26.506;2023-05-07T08:52:48;3.95;;;0.85;;
34359;SDS011;20624;55.870;26.506;2023-05-07T08:55:15;4.03;;;0.73;;
34359;SDS011;20624;55.870;26.506;2023-05-07T08:57:43;6.55;;;0.80;;
34359;SDS011;20624;55.870;26.506;2023-05-07T09:00:11;8.10;;;1.30;;
34359;SDS011;20624;55.870;26.506;2023-05-07T09:02:39;3.15;;;0.80;;
34359;SDS011;20624;55.870;26.506;2023-05-07T09:05:07;4.00;;;1.10;;
34359;SDS011;20624;55.870;26.506;2023-05-07T09:07:35;2.97;;;0.82;;
34359;SDS011;20624;55.870;26.506;2023-05-07T09:10:03;3.45;;;0.95;;
34359;SDS011;20624;55.870;26.506;2023-05-07T09:12:31;4.15;;;1.20;;
34359;SDS011;20624;55.870;26.506;2023-05-07T09:15:01;3.63;;;0.90;;
34359;SDS011;20624;55.870;26.506;2023-05-07T09:17:29;2.92;;;0.80;;
34359;SDS011;20624;55.870;26.506;2023-05-07T09:20:04;4.35;;;1.05;;
34359;SDS011;20624;55.870;26.506;2023-05-07T09:22:36;3.25;;;0.82;;
34359;SDS011;20624;55.870;26.506;2023-05-07T09:25:05;4.32;;;0.90;;
34359;SDS011;20624;55.870;26.506;2023-05-07T09:27:37;2.65;;;0.82;;
34359;SDS011;20624;55.870;26.506;2023-05-07T09:30:05;5.20;;;1.08;;
34359;SDS011;20624;55.870;26.506;2023-05-07T09:32:36;4.43;;;1.20;;
34359;SDS011;20624;55.870;26.506;2023-05-07T09:35:04;3.70;;;0.73;;
34359;SDS011;20624;55.870;26.506;2023-05-07T09:37:33;3.67;;;1.17;;
34359;SDS011;20624;55.870;26.506;2023-05-07T09:40:01;3.78;;;1.00;;
34359;SDS011;20624;55.870;26.506;2023-05-07T09:42:32;3.70;;;0.90;;
34359;SDS011;20624;55.870;26.506;2023-05-07T09:45:04;6.30;;;1.08;;
34359;SDS011;20624;55.870;26.506;2023-05-07T09:47:32;6.85;;;1.17;;
34359;SDS011;20624;55.870;26.506;2023-05-07T09:50:03;4.63;;;1.02;;
34359;SDS011;20624;55.870;26.506;2023-05-07T09:52:32;3.70;;;0.85;;
34359;SDS011;20624;55.870;26.506;2023-05-07T09:55:01;2.60;;;0.77;;
34359;SDS011;20624;55.870;26.506;2023-05-07T09:57:31;2.45;;;0.73;;
34359;SDS011;20624;55.870;26.506;2023-05-07T09:59:59;2.80;;;0.80;;
34359;SDS011;20624;55.870;26.506;2023-05-07T10:02:30;7.03;;;1.48;;
34359;SDS011;20624;55.870;26.506;2023-05-07T10:04:59;2.13;;;0.80;;
34359;SDS011;20624;55.870;26.506;2023-05-07T10:07:28;5.88;;;1.20;;
34359;SDS011;20624;55.870;26.506;2023-05-07T10:09:56;3.50;;;0.90;;
34359;SDS011;20624;55.870;26.506;2023-05-07T10:12:25;6.97;;;1.50;;
34359;SDS011;20624;55.870;26.506;2023-05-07T10:14:53;5.07;;;1.10;;
34359;SDS011;20624;55.870;26.506;2023-05-07T10:17:21;5.63;;;1.15;;
34359;SDS011;20624;55.870;26.506;2023-05-07T10:19:50;7.57;;;1.25;;
34359;SDS011;20624;55.870;26.506;2023-05-07T10:22:23;4.65;;;1.00;;
34359;SDS011;20624;55.870;26.506;2023-05-07T10:24:53;4.53;;;1.00;;
34359;SDS011;20624;55.870;26.506;2023-05-07T10:27:22;3.45;;;0.88;;
34359;SDS011;20624;55.870;26.506;2023-05-07T10:32:45;4.60;;;1.00;;
34359;SDS011;20624;55.870;26.506;2023-05-07T10:35:19;8.27;;;1.60;;
34359;SDS011;20624;55.870;26.506;2023-05-07T10:37:49;2.38;;;1.00;;
34359;SDS011;20624;55.870;26.506;2023-05-07T10:40:17;4.15;;;0.98;;
34359;SDS011;20624;55.870;26.506;2023-05-07T10:42:59;4.72;;;1.00;;
34359;SDS011;20624;55.870;26.506;2023-05-07T10:45:28;4.20;;;0.80;;
34359;SDS011;20624;55.870;26.506;2023-05-07T10:48:12;2.88;;;0.93;;
34359;SDS011;20624;55.870;26.506;2023-05-07T10:53:46;5.20;;;1.30;;
34359;SDS011;20624;55.870;26.506;2023-05-07T10:58:45;4.60;;;0.80;;
34359;SDS011;20624;55.870;26.506;2023-05-07T11:01:12;3.13;;;0.95;;
34359;SDS011;20624;55.870;26.506;2023-05-07T11:06:41;0.90;;;0.40;;
34359;SDS011;20624;55.870;26.506;2023-05-07T11:09:09;6.18;;;1.20;;
34359;SDS011;20624;55.870;26.506;2023-05-07T11:11:49;3.08;;;0.90;;
34359;SDS011;20624;55.870;26.506;2023-05-07T11:17:11;4.25;;;0.85;;
34359;SDS011;20624;55.870;26.506;2023-05-07T11:19:52;4.85;;;1.13;;
34359;SDS011;20624;55.870;26.506;2023-05-07T11:24:59;2.67;;;0.98;;
34359;SDS011;20624;55.870;26.506;2023-05-07T11:27:27;1.70;;;0.70;;
34359;SDS011;20624;55.870;26.506;2023-05-07T11:29:55;4.40;;;1.05;;
34359;SDS011;20624;55.870;26.506;2023-05-07T11:32:23;3.13;;;0.85;;
34359;SDS011;20624;55.870;26.506;2023-05-07T11:34:52;3.80;;;1.05;;
34359;SDS011;20624;55.870;26.506;2023-05-07T11:37:20;3.78;;;0.90;;
34359;SDS011;20624;55.870;26.506;2023-05-07T11:42:29;2.55;;;0.65;;
34359;SDS011;20624;55.870;26.506;2023-05-07T11:44:57;3.30;;;0.68;;
34359;SDS011;20624;55.870;26.506;2023-05-07T11:47:25;2.13;;;0.70;;
34359;SDS011;20624;55.870;26.506;2023-05-07T11:49:53;3.42;;;0.82;;
34359;SDS011;20624;55.870;26.506;2023-05-07T11:52:25;3.05;;;1.10;;
34359;SDS011;20624;55.870;26.506;2023-05-07T11:54:53;2.88;;;0.80;;
34359;SDS011;20624;55.870;26.506;2023-05-07T11:57:21;5.95;;;1.23;;
34359;SDS011;20624;55.870;26.506;2023-05-07T11:59:59;1.88;;;0.88;;
34359;SDS011;20624;55.870;26.506;2023-05-07T12:02:28;3.92;;;1.05;;
34359;SDS011;20624;55.870;26.506;2023-05-07T12:04:56;5.22;;;1.35;;
34359;SDS011;20624;55.870;26.506;2023-05-07T12:07:24;4.00;;;0.95;;
34359;SDS011;20624;55.870;26.506;2023-05-07T12:09:51;2.28;;;0.65;;
34359;SDS011;20624;55.870;26.506;2023-05-07T12:12:19;4.97;;;0.93;;
34359;SDS011;20624;55.870;26.506;2023-05-07T12:14:47;2.08;;;0.73;;
34359;SDS011;20624;55.870;26.506;2023-05-07T12:17:18;2.53;;;0.70;;
34359;SDS011;20624;55.870;26.506;2023-05-07T12:19:46;5.65;;;1.25;;
34359;SDS011;20624;55.870;26.506;2023-05-07T12:22:14;4.70;;;0.88;;
34359;SDS011;20624;55.870;26.506;2023-05-07T12:24:49;2.75;;;0.70;;
34359;SDS011;20624;55.870;26.506;2023-05-07T12:27:16;2.70;;;0.90;;
34359;SDS011;20624;55.870;26.506;2023-05-07T12:29:48;3.90;;;0.80;;
34359;SDS011;20624;55.870;26.506;2023-05-07T12:32:20;7.47;;;1.45;;
34359;SDS011;20624;55.870;26.506;2023-05-07T12:34:50;4.60;;;1.00;;
34359;SDS011;20624;55.870;26.506;2023-05-07T12:37:23;4.47;;;1.00;;
34359;SDS011;20624;55.870;26.506;2023-05-07T12:40:06;1.95;;;0.60;;
34359;SDS011;20624;55.870;26.506;2023-05-07T12:42:37;6.50;;;1.20;;
34359;SDS011;20624;55.870;26.506;2023-05-07T12:45:09;2.80;;;0.68;;
34359;SDS011;20624;55.870;26.506;2023-05-07T12:47:38;4.30;;;1.00;;
34359;SDS011;20624;55.870;26.506;2023-05-07T12:50:06;3.17;;;0.80;;
34359;SDS011;20624;55.870;26.506;2023-05-07T12:52:34;6.47;;;1.17;;
34359;SDS011;20624;55.870;26.506;2023-05-07T12:55:05;2.72;;;0.80;;
34359;SDS011;20624;55.870;26.506;2023-05-07T12:57:45;3.70;;;0.68;;
34359;SDS011;20624;55.870;26.506;2023-05-07T13:00:14;6.10;;;1.15;;
34359;SDS011;20624;55.870;26.506;2023-05-07T13:02:43;6.82;;;1.15;;
34359;SDS011;20624;55.870;26.506;2023-05-07T13:05:11;5.35;;;0.93;;
34359;SDS011;20624;55.870;26.506;2023-05-07T13:07:39;3.80;;;0.70;;
34359;SDS011;20624;55.870;26.506;2023-05-07T13:10:07;4.28;;;1.00;;
34359;SDS011;20624;55.870;26.506;2023-05-07T13:12:35;1.83;;;0.73;;
34359;SDS011;20624;55.870;26.506;2023-05-07T13:15:03;4.55;;;1.20;;
34359;SDS011;20624;55.870;26.506;2023-05-07T13:17:31;1.52;;;0.45;;
34359;SDS011;20624;55.870;26.506;2023-05-07T13:19:59;2.45;;;0.80;;
34359;SDS011;20624;55.870;26.506;2023-05-07T13:22:27;3.25;;;0.95;;
34359;SDS011;20624;55.870;26.506;2023-05-07T13:24:54;3.40;;;0.68;;
34359;SDS011;20624;55.870;26.506;2023-05-07T13:27:22;11.27;;;1.95;;
34359;SDS011;20624;55.870;26.506;2023-05-07T13:29:50;1.67;;;0.38;;
34359;SDS011;20624;55.870;26.506;2023-05-07T13:32:18;3.78;;;0.88;;
34359;SDS011;20624;55.870;26.506;2023-05-07T13:34:45;3.35;;;0.85;;
34359;SDS011;20624;55.870;26.506;2023-05-07T13:37:14;3.17;;;0.98;;
34359;SDS011;20624;55.870;26.506;2023-05-07T13:39:45;6.85;;;1.27;;
34359;SDS011;20624;55.870;26.506;2023-05-07T13:42:13;5.65;;;0.70;;
34359;SDS011;20624;55.870;26.506;2023-05-07T13:44:40;10.25;;;1.55;;
34359;SDS011;20624;55.870;26.506;2023-05-07T13:47:10;5.63;;;1.20;;
34359;SDS011;20624;55.870;26.506;2023-05-07T13:49:37;1.67;;;0.57;;
34359;SDS011;20624;55.870;26.506;2023-05-07T13:52:05;5.55;;;1.13;;
34359;SDS011;20624;55.870;26.506;2023-05-07T13:54:33;5.55;;;0.95;;
34359;SDS011;20624;55.870;26.506;2023-05-07T13:57:00;3.67;;;1.10;;
34359;SDS011;20624;55.870;26.506;2023-05-07T13:59:28;3.58;;;0.88;;
34359;SDS011;20624;55.870;26.506;2023-05-07T14:01:56;3.97;;;0.80;;
34359;SDS011;20624;55.870;26.506;2023-05-07T14:04:24;3.92;;;0.80;;
34359;SDS011;20624;55.870;26.506;2023-05-07T14:06:52;2.28;;;0.70;;
34359;SDS011;20624;55.870;26.506;2023-05-07T14:09:20;4.45;;;0.95;;
34359;SDS011;20624;55.870;26.506;2023-05-07T14:11:47;3.67;;;1.35;;
34359;SDS011;20624;55.870;26.506;2023-05-07T14:14:20;4.53;;;0.90;;
34359;SDS011;20624;55.870;26.506;2023-05-07T14:16:47;4.88;;;0.90;;
34359;SDS011;20624;55.870;26.506;2023-05-07T14:19:16;4.22;;;1.00;;
34359;SDS011;20624;55.870;26.506;2023-05-07T14:21:44;3.70;;;0.90;;
34359;SDS011;20624;55.870;26.506;2023-05-07T14:24:12;5.10;;;1.05;;
34359;SDS011;20624;55.870;26.506;2023-05-07T14:26:49;2.28;;;0.70;;
34359;SDS011;20624;55.870;26.506;2023-05-07T14:29:17;4.95;;;1.00;;
34359;SDS011;20624;55.870;26.506;2023-05-07T14:31:49;11.20;;;1.95;;
34359;SDS011;20624;55.870;26.506;2023-05-07T14:34:17;4.53;;;0.90;;
34359;SDS011;20624;55.870;26.506;2023-05-07T14:36:45;4.25;;;0.90;;
34359;SDS011;20624;55.870;26.506;2023-05-07T14:39:16;8.70;;;1.65;;
34359;SDS011;20624;55.870;26.506;2023-05-07T14:41:43;3.42;;;0.80;;
34359;SDS011;20624;55.870;26.506;2023-05-07T14:44:11;5.32;;;1.08;;
34359;SDS011;20624;55.870;26.506;2023-05-07T14:46:39;3.90;;;0.82;;
34359;SDS011;20624;55.870;26.506;2023-05-07T14:49:07;2.53;;;0.70;;
34359;SDS011;20624;55.870;26.506;2023-05-07T14:51:43;5.38;;;1.00;;
34359;SDS011;20624;55.870;26.506;2023-05-07T14:54:15;4.03;;;1.05;;
34359;SDS011;20624;55.870;26.506;2023-05-07T14:56:45;3.28;;;0.80;;
34359;SDS011;20624;55.870;26.506;2023-05-07T14:59:13;4.88;;;1.08;;
34359;SDS011;20624;55.870;26.506;2023-05-07T15:01:42;3.13;;;1.13;;